createdAt,value
2018-11-23T00:02:24.534Z,24.63
2018-11-23T00:04:52.895Z,26.35
2018-11-23T00:07:21.400Z,24.25
2018-11-23T00:09:49.728Z,24.70
2018-11-23T00:12:18.043Z,25.72
2018-11-23T00:14:46.432Z,24.55
2018-11-23T00:17:14.804Z,28.60
2018-11-23T00:19:43.194Z,26.52
2018-11-23T00:22:12.184Z,25.37
2018-11-23T00:24:40.887Z,29.63
2018-11-23T00:27:09.597Z,28.85
2018-11-23T00:29:38.306Z,26.90
2018-11-23T00:32:06.635Z,25.27
2018-11-23T00:34:34.956Z,25.70
2018-11-23T00:37:03.290Z,25.82
2018-11-23T00:39:31.612Z,31.05
2018-11-23T00:41:59.940Z,23.85
2018-11-23T00:44:28.203Z,25.90
2018-11-23T00:46:56.522Z,25.05
2018-11-23T00:49:24.822Z,27.42
2018-11-23T00:51:53.180Z,27.67
2018-11-23T00:54:21.491Z,30.72
2018-11-23T00:56:49.795Z,26.70
2018-11-23T00:59:18.430Z,23.25
2018-11-23T01:01:52.292Z,27.65
2018-11-23T01:04:20.753Z,25.30
2018-11-23T01:06:49.160Z,23.95
2018-11-23T01:09:18.742Z,26.65
2018-11-23T01:11:47.348Z,25.60
2018-11-23T01:14:15.905Z,25.25
2018-11-23T01:16:44.311Z,26.33
2018-11-23T01:19:12.607Z,24.23
2018-11-23T01:21:40.939Z,23.40
2018-11-23T01:24:09.317Z,26.42
2018-11-23T01:26:37.675Z,23.50
2018-11-23T01:29:05.988Z,25.75
2018-11-23T01:31:34.324Z,26.17
2018-11-23T01:34:02.674Z,24.10
2018-11-23T01:36:30.989Z,25.12
2018-11-23T01:38:59.280Z,26.33
2018-11-23T01:41:27.675Z,23.95
2018-11-23T01:43:56.153Z,27.25
2018-11-23T01:46:24.638Z,25.62
2018-11-23T01:48:53.170Z,23.27
2018-11-23T01:51:22.481Z,28.42
2018-11-23T01:53:51.513Z,24.35
2018-11-23T01:56:20.109Z,24.63
2018-11-23T01:58:50.156Z,27.10
2018-11-23T02:01:19.626Z,31.45
2018-11-23T02:03:49.119Z,27.02
2018-11-23T02:06:18.289Z,25.15
2018-11-23T02:08:48.690Z,26.37
2018-11-23T02:11:18.085Z,26.37
2018-11-23T02:13:49.682Z,27.07
2018-11-23T02:16:18.738Z,24.72
2018-11-23T02:18:47.289Z,25.80
2018-11-23T02:21:15.652Z,26.23
2018-11-23T02:23:44.059Z,26.17
2018-11-23T02:26:12.366Z,21.95
2018-11-23T02:28:40.743Z,25.62
2018-11-23T02:31:09.952Z,26.55
2018-11-23T02:33:40.236Z,24.40
2018-11-23T02:36:09.525Z,22.73
2018-11-23T02:38:38.433Z,27.40
2018-11-23T02:41:06.692Z,25.23
2018-11-23T02:43:35.154Z,25.57
2018-11-23T02:46:03.957Z,22.73
2018-11-23T02:48:32.572Z,26.30
2018-11-23T02:51:01.281Z,28.12
2018-11-23T02:53:29.667Z,28.92
2018-11-23T02:55:58.015Z,28.47
2018-11-23T02:58:26.366Z,26.33
2018-11-23T03:00:54.792Z,28.65
2018-11-23T03:03:23.116Z,26.30
2018-11-23T03:05:51.427Z,26.55
2018-11-23T03:08:19.820Z,30.60
2018-11-23T03:10:48.367Z,27.62
2018-11-23T03:13:16.812Z,27.25
2018-11-23T03:15:45.297Z,30.48
2018-11-23T03:18:13.701Z,31.55
2018-11-23T03:20:42.025Z,37.67
2018-11-23T03:23:10.597Z,28.07
2018-11-23T03:25:39.145Z,28.15
2018-11-23T03:28:08.010Z,27.17
2018-11-23T03:30:36.447Z,29.42
2018-11-23T03:33:04.929Z,30.37
2018-11-23T03:35:33.262Z,28.83
2018-11-23T03:38:01.652Z,25.27
2018-11-23T03:40:30.027Z,26.13
2018-11-23T03:42:58.364Z,29.52
2018-11-23T03:45:27.325Z,27.00
2018-11-23T03:47:55.638Z,31.97
2018-11-23T03:50:24.002Z,28.73
2018-11-23T03:52:52.349Z,28.38
2018-11-23T03:55:20.860Z,28.15
2018-11-23T03:57:49.232Z,25.40
2018-11-23T04:00:20.341Z,25.10
2018-11-23T04:02:49.161Z,26.25
2018-11-23T04:05:18.104Z,29.18
2018-11-23T04:07:46.867Z,26.48
2018-11-23T04:10:16.361Z,31.85
2018-11-23T04:12:45.219Z,28.17
2018-11-23T04:15:14.237Z,35.33
2018-11-23T04:17:42.955Z,28.93
2018-11-23T04:20:13.664Z,28.93
2018-11-23T04:22:42.505Z,27.98
2018-11-23T04:25:11.393Z,23.50
2018-11-23T04:27:40.013Z,31.15
2018-11-23T04:30:12.273Z,31.07
2018-11-23T04:32:40.559Z,29.80
2018-11-23T04:35:10.929Z,29.72
2018-11-23T04:37:39.221Z,26.17
2018-11-23T04:40:08.756Z,28.77
2018-11-23T04:42:37.117Z,27.60
2018-11-23T04:45:05.725Z,24.70
2018-11-23T04:47:34.065Z,25.77
2018-11-23T04:50:02.405Z,27.03
2018-11-23T04:52:30.742Z,28.70
2018-11-23T04:54:59.376Z,33.83
2018-11-23T04:57:27.883Z,28.42
2018-11-23T04:59:56.429Z,24.57
2018-11-23T05:02:25.066Z,31.40
2018-11-23T05:04:53.751Z,28.63
2018-11-23T05:07:23.209Z,29.27
2018-11-23T05:09:51.659Z,26.40
2018-11-23T05:12:20.167Z,26.87
2018-11-23T05:14:48.469Z,29.50
2018-11-23T05:17:17.968Z,30.60
2018-11-23T05:19:46.438Z,27.20
2018-11-23T05:22:14.753Z,28.73
2018-11-23T05:24:43.214Z,27.90
2018-11-23T05:27:11.573Z,26.93
2018-11-23T05:29:40.187Z,27.95
2018-11-23T05:32:08.630Z,30.53
2018-11-23T05:34:36.983Z,28.50
2018-11-23T05:37:05.525Z,26.23
2018-11-23T05:39:34.224Z,36.07
2018-11-23T05:42:02.858Z,30.97
2018-11-23T05:44:31.792Z,31.97
2018-11-23T05:47:00.434Z,32.93
2018-11-23T05:49:29.325Z,33.40
2018-11-23T05:51:57.959Z,35.40
2018-11-23T05:54:26.459Z,33.63
2018-11-23T05:56:54.826Z,33.30
2018-11-23T05:59:23.175Z,31.60
2018-11-23T06:01:51.570Z,30.83
2018-11-23T06:04:19.884Z,31.55
2018-11-23T06:06:48.567Z,31.37
2018-11-23T06:09:16.854Z,32.57
2018-11-23T06:11:45.177Z,30.90
2018-11-23T06:14:13.501Z,29.83
2018-11-23T06:16:41.828Z,32.73
2018-11-23T06:19:10.444Z,34.23
2018-11-23T06:21:39.062Z,35.30
2018-11-23T06:24:07.572Z,35.40
2018-11-23T06:26:37.036Z,33.45
2018-11-23T06:29:05.694Z,36.70
2018-11-23T06:31:34.912Z,34.33
2018-11-23T06:34:04.299Z,36.20
2018-11-23T06:36:33.070Z,34.57
2018-11-23T06:39:02.963Z,37.73
2018-11-23T06:41:32.805Z,35.80
2018-11-23T06:44:02.767Z,32.47
2018-11-23T06:46:31.664Z,36.50
2018-11-23T06:49:00.647Z,33.80
2018-11-23T06:51:29.089Z,38.60
2018-11-23T06:53:57.368Z,40.00
2018-11-23T06:56:31.642Z,34.15
2018-11-23T06:59:10.713Z,33.30
2018-11-23T07:01:42.830Z,35.33
2018-11-23T07:04:12.751Z,35.10
2018-11-23T07:06:42.641Z,34.00
2018-11-23T07:09:13.054Z,35.23
2018-11-23T07:11:43.603Z,32.55
2018-11-23T07:14:14.352Z,36.90
2018-11-23T07:16:44.756Z,32.67
2018-11-23T07:19:15.613Z,33.28
2018-11-23T07:21:45.281Z,38.33
2018-11-23T07:24:16.248Z,33.57
2018-11-23T07:26:45.894Z,34.85
2018-11-23T07:29:16.391Z,34.25
2018-11-23T07:31:47.000Z,34.33
2018-11-23T07:34:19.043Z,34.00
2018-11-23T07:36:48.004Z,31.93
2018-11-23T07:42:19.660Z,34.43
2018-11-23T07:44:49.076Z,32.93
2018-11-23T07:47:19.954Z,32.33
2018-11-23T07:49:49.591Z,31.37
2018-11-23T07:52:21.246Z,33.30
2018-11-23T07:54:50.743Z,38.53
2018-11-23T07:57:22.685Z,38.55
2018-11-23T07:59:51.524Z,35.58
2018-11-23T08:02:22.193Z,35.63
2018-11-23T08:04:51.598Z,35.03
2018-11-23T08:07:23.585Z,36.03
2018-11-23T08:09:53.154Z,40.60
2018-11-23T08:12:24.059Z,33.75
2018-11-23T08:17:54.475Z,41.13
2018-11-23T08:20:25.202Z,39.00
2018-11-23T08:22:54.922Z,37.03
2018-11-23T08:25:27.013Z,43.37
2018-11-23T08:27:56.941Z,36.20
2018-11-23T08:30:26.852Z,35.98
2018-11-23T08:32:57.038Z,37.50
2018-11-23T08:35:27.435Z,37.15
2018-11-23T08:37:57.090Z,38.73
2018-11-23T08:40:29.279Z,35.90
2018-11-23T08:42:58.579Z,48.17
2018-11-23T08:45:28.923Z,37.30
2018-11-23T08:47:58.818Z,40.28
2018-11-23T08:50:30.152Z,35.10
2018-11-23T08:52:59.958Z,38.02
2018-11-23T08:55:30.338Z,38.28
2018-11-23T08:58:01.620Z,38.05
2018-11-23T09:00:31.020Z,35.25
2018-11-23T09:03:02.450Z,33.18
2018-11-23T09:05:31.564Z,38.10
2018-11-23T09:08:03.190Z,34.63
2018-11-23T09:10:32.821Z,32.80
2018-11-23T09:13:04.072Z,35.58
2018-11-23T09:15:33.370Z,35.73
2018-11-23T09:18:03.928Z,33.40
2018-11-23T09:20:35.620Z,33.48
2018-11-23T09:23:04.413Z,35.33
2018-11-23T09:25:38.066Z,33.40
2018-11-23T09:28:06.741Z,34.92
2018-11-23T09:30:36.164Z,30.52
2018-11-23T09:33:06.868Z,39.20
2018-11-23T09:35:36.726Z,33.63
2018-11-23T09:38:13.932Z,35.55
2018-11-23T09:41:04.817Z,34.98
2018-11-23T09:43:39.568Z,40.15
2018-11-23T09:46:07.967Z,32.35
2018-11-23T09:48:40.602Z,33.98
2018-11-23T09:51:09.244Z,33.85
2018-11-23T09:53:39.107Z,33.95
2018-11-23T09:56:08.531Z,33.48
2018-11-23T09:58:43.365Z,35.23
2018-11-23T10:03:36.708Z,37.78
2018-11-23T10:06:06.721Z,36.30
2018-11-23T10:08:37.423Z,34.30
2018-11-23T10:11:12.743Z,36.45
2018-11-23T10:13:42.281Z,39.20
2018-11-23T10:16:11.306Z,36.42
2018-11-23T10:18:39.975Z,37.90
2018-11-23T10:21:14.489Z,35.83
2018-11-23T10:23:44.548Z,32.42
2018-11-23T10:26:15.303Z,30.88
2018-11-23T10:28:45.509Z,38.75
2018-11-23T10:31:16.593Z,36.53
2018-11-23T10:33:45.395Z,36.80
2018-11-23T10:36:18.193Z,32.88
2018-11-23T10:38:46.852Z,35.05
2018-11-23T10:41:26.700Z,35.17
2018-11-23T10:43:56.046Z,28.80
2018-11-23T10:46:24.893Z,32.13
2018-11-23T10:48:56.205Z,32.88
2018-11-23T10:51:24.488Z,33.63
2018-11-23T10:53:53.018Z,37.90
2018-11-23T10:56:21.699Z,35.33
2018-11-23T10:58:50.646Z,32.30
2018-11-23T11:01:25.845Z,33.38
2018-11-23T11:03:59.908Z,35.98
2018-11-23T11:06:33.803Z,31.75
2018-11-23T11:09:02.425Z,35.88
2018-11-23T11:11:33.446Z,31.82
2018-11-23T11:14:03.325Z,37.33
2018-11-23T11:16:32.841Z,38.30
2018-11-23T11:19:02.084Z,36.70
2018-11-23T11:21:31.032Z,30.90
2018-11-23T11:23:59.963Z,37.17
2018-11-23T11:26:28.859Z,32.08
2018-11-23T11:28:57.609Z,34.20
2018-11-23T11:31:26.394Z,32.40
2018-11-23T11:33:55.599Z,31.12
2018-11-23T11:36:24.095Z,35.52
2018-11-23T11:38:52.539Z,32.23
2018-11-23T11:41:21.082Z,33.18
2018-11-23T11:43:49.456Z,36.55
2018-11-23T11:46:17.791Z,32.78
2018-11-23T11:48:46.448Z,31.45
2018-11-23T11:51:17.653Z,31.77
2018-11-23T11:53:43.648Z,31.33
2018-11-23T11:56:12.278Z,34.43
2018-11-23T11:58:40.702Z,33.08
2018-11-23T12:01:09.288Z,34.20
2018-11-23T12:03:37.804Z,34.08
2018-11-23T12:06:06.424Z,30.25
2018-11-23T12:08:35.091Z,94.62
2018-11-23T12:11:03.812Z,43.35
2018-11-23T12:13:32.678Z,30.55
2018-11-23T12:16:01.654Z,35.17
2018-11-23T12:18:33.170Z,31.95
2018-11-23T12:21:02.024Z,28.70
2018-11-23T12:23:31.314Z,37.10
2018-11-23T12:26:02.753Z,31.42
2018-11-23T12:28:35.014Z,30.68
2018-11-23T12:31:04.985Z,42.95
2018-11-23T12:33:34.623Z,37.65
2018-11-23T12:36:03.032Z,34.30
2018-11-23T12:38:34.383Z,29.75
2018-11-23T12:41:06.131Z,30.20
2018-11-23T12:43:38.050Z,29.92
2018-11-23T12:46:07.095Z,28.02
2018-11-23T12:48:35.694Z,32.83
2018-11-23T12:51:04.052Z,28.47
2018-11-23T12:53:32.705Z,30.00
2018-11-23T12:56:01.096Z,28.83
2018-11-23T12:58:29.382Z,29.70
2018-11-23T13:00:58.207Z,27.52
2018-11-23T13:03:27.059Z,27.82
2018-11-23T13:05:55.700Z,26.33
2018-11-23T13:08:25.390Z,26.40
2018-11-23T13:10:55.793Z,27.77
2018-11-23T13:13:24.922Z,25.97
2018-11-23T13:16:04.386Z,31.05
2018-11-23T13:18:41.865Z,27.77
2018-11-23T13:21:13.529Z,27.62
2018-11-23T13:23:43.460Z,27.67
2018-11-23T13:26:13.833Z,26.35
2018-11-23T13:28:44.487Z,27.58
2018-11-23T13:31:14.727Z,31.60
2018-11-23T13:33:44.370Z,34.25
2018-11-23T13:36:14.817Z,28.30
2018-11-23T13:38:45.678Z,24.90
2018-11-23T13:41:45.284Z,27.90
2018-11-23T13:44:17.619Z,29.07
2018-11-23T13:46:47.220Z,27.75
2018-11-23T13:49:16.768Z,24.07
2018-11-23T13:51:47.433Z,28.20
2018-11-23T13:54:17.727Z,28.30
2018-11-23T13:56:49.615Z,29.07
2018-11-23T13:59:18.706Z,26.37
2018-11-23T14:01:48.992Z,32.45
2018-11-23T14:04:21.769Z,28.17
2018-11-23T14:06:50.469Z,26.93
2018-11-23T14:09:19.864Z,27.52
2018-11-23T14:11:50.498Z,29.48
2018-11-23T14:14:22.839Z,26.57
2018-11-23T14:16:52.886Z,28.30
2018-11-23T14:19:22.606Z,29.05
2018-11-23T14:21:52.733Z,30.15
2018-11-23T14:24:23.234Z,31.33
2018-11-23T14:26:52.914Z,30.68
2018-11-23T14:29:21.361Z,35.83
2018-11-23T14:31:53.318Z,29.15
2018-11-23T14:34:23.368Z,30.37
2018-11-23T14:36:53.591Z,66.28
2018-11-23T14:39:23.010Z,32.88
2018-11-23T14:41:53.417Z,36.15
2018-11-23T14:44:24.436Z,40.15
2018-11-23T14:46:56.616Z,31.93
2018-11-23T14:49:25.512Z,31.55
2018-11-23T14:51:58.097Z,32.03
2018-11-23T14:54:27.621Z,36.35
2018-11-23T14:56:56.070Z,38.17
2018-11-23T14:59:24.564Z,31.82
2018-11-23T15:01:53.009Z,34.05
2018-11-23T15:04:27.000Z,36.33
2018-11-23T15:06:59.375Z,35.73
2018-11-23T15:09:30.182Z,32.98
2018-11-23T15:12:01.865Z,33.58
2018-11-23T15:14:30.579Z,34.30
2018-11-23T15:17:01.014Z,32.30
2018-11-23T15:19:32.395Z,32.83
2018-11-23T15:22:01.433Z,35.78
2018-11-23T15:24:29.803Z,36.58
2018-11-23T15:27:02.463Z,39.63
2018-11-23T15:29:34.658Z,42.83
2018-11-23T15:32:03.648Z,35.25
2018-11-23T15:34:33.057Z,32.55
2018-11-23T15:37:02.349Z,41.40
2018-11-23T15:39:33.400Z,35.73
2018-11-23T15:42:05.588Z,39.53
2018-11-23T15:44:34.416Z,39.83
2018-11-23T15:47:04.976Z,37.00
2018-11-23T15:49:37.211Z,40.83
2018-11-23T15:52:10.125Z,32.98
2018-11-23T15:54:38.729Z,36.10
2018-11-23T15:57:07.472Z,36.40
2018-11-23T15:59:39.281Z,37.17
2018-11-23T16:02:07.844Z,42.53
2018-11-23T16:04:39.407Z,37.25
2018-11-23T16:07:06.420Z,36.53
2018-11-23T16:09:37.798Z,43.75
2018-11-23T16:12:09.625Z,37.73
2018-11-23T16:14:42.053Z,35.63
2018-11-23T16:17:10.624Z,50.08
2018-11-23T16:19:41.112Z,39.30
2018-11-23T16:22:10.286Z,40.48
2018-11-23T16:24:42.629Z,40.55
2018-11-23T16:27:12.616Z,39.78
2018-11-23T16:29:43.463Z,39.15
2018-11-23T16:32:12.380Z,38.60
2018-11-23T16:34:42.573Z,37.00
2018-11-23T16:37:13.594Z,34.58
2018-11-23T16:39:44.314Z,38.05
2018-11-23T16:42:14.642Z,36.35
2018-11-23T16:44:46.502Z,34.15
2018-11-23T16:47:15.560Z,38.30
2018-11-23T16:49:45.409Z,37.28
2018-11-23T16:52:14.206Z,40.23
2018-11-23T16:57:38.950Z,36.77
2018-11-23T17:00:21.306Z,37.42
2018-11-23T17:02:50.664Z,34.58
2018-11-23T17:05:21.527Z,35.40
2018-11-23T17:07:51.358Z,36.83
2018-11-23T17:10:21.097Z,31.93
2018-11-23T17:12:50.830Z,36.23
2018-11-23T17:15:21.585Z,38.65
2018-11-23T17:17:50.657Z,35.78
2018-11-23T17:20:21.127Z,36.53
2018-11-23T17:22:51.053Z,33.45
2018-11-23T17:25:22.097Z,37.35
2018-11-23T17:27:53.354Z,37.70
2018-11-23T17:30:24.879Z,33.73
2018-11-23T17:32:54.292Z,49.60
2018-11-23T17:35:23.741Z,37.15
2018-11-23T17:37:52.686Z,32.23
2018-11-23T17:40:23.217Z,34.63
2018-11-23T17:42:52.290Z,34.45
2018-11-23T17:45:22.872Z,30.70
2018-11-23T17:47:52.505Z,37.45
2018-11-23T17:50:24.106Z,37.08
2018-11-23T17:52:53.939Z,37.80
2018-11-23T17:55:22.790Z,38.45
2018-11-23T17:57:52.316Z,34.55
2018-11-23T18:00:23.885Z,33.35
2018-11-23T18:02:53.213Z,38.42
2018-11-23T18:05:23.331Z,35.30
2018-11-23T18:07:53.321Z,34.58
2018-11-23T18:10:25.843Z,35.17
2018-11-23T18:12:55.745Z,33.18
2018-11-23T18:15:26.360Z,34.00
2018-11-23T18:17:56.290Z,32.90
2018-11-23T18:20:26.291Z,34.50
2018-11-23T18:22:58.125Z,33.98
2018-11-23T18:25:29.829Z,32.25
2018-11-23T18:28:00.456Z,28.90
2018-11-23T18:30:33.493Z,37.88
2018-11-23T18:33:04.943Z,31.48
2018-11-23T18:35:34.942Z,33.45
2018-11-23T18:38:03.947Z,34.27
2018-11-23T18:40:37.462Z,32.95
2018-11-23T18:43:02.798Z,31.85
2018-11-23T18:45:31.596Z,34.35
2018-11-23T18:48:00.389Z,32.98
2018-11-23T18:50:29.117Z,34.38
2018-11-23T18:52:58.866Z,31.97
2018-11-23T18:55:28.124Z,31.40
2018-11-23T18:57:57.535Z,32.40
2018-11-23T19:00:27.529Z,39.20
2018-11-23T19:02:58.997Z,35.90
2018-11-23T19:05:29.736Z,33.08
2018-11-23T19:08:00.440Z,33.35
2018-11-23T19:10:30.845Z,30.02
2018-11-23T19:13:01.721Z,32.05
2018-11-23T19:15:31.910Z,33.30
2018-11-23T19:18:02.666Z,40.78
2018-11-23T19:20:33.732Z,38.30
2018-11-23T19:23:02.908Z,29.18
2018-11-23T19:25:33.282Z,34.60
2018-11-23T19:28:05.553Z,35.95
2018-11-23T19:30:35.330Z,31.02
2018-11-23T19:33:05.689Z,38.48
2018-11-23T19:35:35.224Z,35.75
2018-11-23T19:38:08.795Z,36.85
2018-11-23T19:40:39.309Z,43.45
2018-11-23T19:43:11.370Z,39.85
2018-11-23T19:45:42.505Z,37.33
2018-11-23T19:48:14.376Z,35.60
2018-11-23T19:50:43.980Z,40.20
2018-11-23T19:53:13.317Z,46.80
2018-11-23T19:55:43.369Z,36.95
2018-11-23T19:58:12.438Z,37.78
2018-11-23T20:00:41.213Z,37.25
2018-11-23T20:03:10.126Z,38.30
2018-11-23T20:05:39.947Z,38.58
2018-11-23T20:08:17.474Z,39.67
2018-11-23T20:10:48.835Z,37.17
2018-11-23T20:13:18.556Z,41.80
2018-11-23T20:15:48.932Z,40.10
2018-11-23T20:18:19.395Z,36.03
2018-11-23T20:20:48.701Z,38.13
2018-11-23T20:23:18.648Z,34.88
2018-11-23T20:25:50.639Z,41.85
2018-11-23T20:28:19.970Z,39.13
2018-11-23T20:30:50.437Z,41.88
2018-11-23T20:33:21.297Z,40.92
2018-11-23T20:35:52.060Z,37.45
2018-11-23T20:38:23.553Z,39.40
2018-11-23T20:40:53.041Z,41.28
2018-11-23T20:43:25.320Z,33.95
2018-11-23T20:45:54.627Z,43.13
2018-11-23T20:48:25.023Z,35.92
2018-11-23T20:50:56.188Z,41.05
2018-11-23T20:53:25.385Z,38.17
2018-11-23T20:55:54.921Z,41.18
2018-11-23T20:58:24.585Z,38.10
2018-11-23T21:00:53.492Z,38.98
2018-11-23T21:03:22.299Z,44.90
2018-11-23T21:05:50.953Z,35.95
2018-11-23T21:08:22.092Z,34.43
2018-11-23T21:10:53.248Z,38.67
2018-11-23T21:13:23.781Z,40.12
2018-11-23T21:15:53.767Z,37.05
2018-11-23T21:18:23.926Z,36.58
2018-11-23T21:20:55.757Z,34.73
2018-11-23T21:23:25.473Z,36.60
2018-11-23T21:25:58.673Z,42.03
2018-11-23T21:28:29.425Z,46.70
2018-11-23T21:30:58.276Z,40.05
2018-11-23T21:33:26.979Z,40.50
2018-11-23T21:35:57.936Z,42.98
2018-11-23T21:38:27.739Z,37.00
2018-11-23T21:40:56.702Z,42.13
2018-11-23T21:43:25.488Z,38.78
2018-11-23T21:45:54.310Z,41.18
2018-11-23T21:48:23.533Z,44.42
2018-11-23T21:50:52.660Z,43.00
2018-11-23T21:53:23.139Z,44.05
2018-11-23T21:55:54.349Z,46.55
2018-11-23T21:58:28.902Z,39.40
2018-11-23T22:00:59.072Z,41.40
2018-11-23T22:03:35.672Z,40.35
2018-11-23T22:06:05.757Z,43.55
2018-11-23T22:08:34.899Z,42.15
2018-11-23T22:11:04.049Z,41.30
2018-11-23T22:13:33.927Z,42.60
2018-11-23T22:16:03.210Z,42.20
2018-11-23T22:18:35.128Z,42.78
2018-11-23T22:21:05.795Z,40.43
2018-11-23T22:23:36.387Z,42.67
2018-11-23T22:26:06.120Z,45.65
2018-11-23T22:28:37.346Z,45.15
2018-11-23T22:31:06.709Z,41.65
2018-11-23T22:33:35.403Z,40.43
2018-11-23T22:36:04.268Z,36.38
2018-11-23T22:38:33.015Z,44.25
2018-11-23T22:41:01.701Z,42.25
2018-11-23T22:43:30.512Z,41.48
2018-11-23T22:45:59.358Z,45.98
2018-11-23T22:48:28.013Z,40.60
2018-11-23T22:50:56.628Z,44.40
2018-11-23T22:53:25.326Z,41.05
2018-11-23T22:55:54.180Z,39.75
2018-11-23T22:58:23.092Z,43.55
2018-11-23T23:00:56.048Z,43.70
2018-11-23T23:03:24.914Z,39.05
2018-11-23T23:05:53.930Z,42.00
2018-11-23T23:08:22.725Z,38.23
2018-11-23T23:10:51.569Z,39.63
2018-11-23T23:13:20.404Z,40.17
2018-11-23T23:15:49.263Z,42.20
2018-11-23T23:18:18.227Z,38.98
2018-11-23T23:20:47.473Z,46.42
2018-11-23T23:23:16.275Z,42.73
2018-11-23T23:25:45.020Z,38.30
2018-11-23T23:28:13.812Z,43.55
2018-11-23T23:30:42.565Z,39.40
2018-11-23T23:33:11.231Z,51.50
2018-11-23T23:35:39.968Z,43.50
2018-11-23T23:38:08.684Z,37.55
2018-11-23T23:40:37.370Z,42.45
2018-11-23T23:43:05.985Z,39.27
2018-11-23T23:45:34.716Z,41.35
2018-11-23T23:48:03.560Z,47.88
2018-11-23T23:50:32.606Z,36.33
2018-11-23T23:53:01.430Z,43.40
2018-11-23T23:55:30.534Z,40.90
2018-11-23T23:57:59.456Z,43.10
